Time;durP1;ratioP1;P1;durP2;ratioP2;P2;SDS_P1;SDS_P2;PMS_P1;PMS_P2;Temp;Humidity;BMP_temperature;BMP_pressure;BME280_temperature;BME280_humidity;BME280_pressure;Samples;Min_cycle;Max_cycle;Signal;HPM_P1;HPM_P2
2022/02/16 00:00:15;;;;;;;60.13;31.70;;;;;;;5.89;100.00;100174.47;5116271;28;20048;-76
2022/02/16 00:02:43;;;;;;;59.72;31.92;;;;;;;5.81;100.00;100176.56;5115850;28;20503;-76
2022/02/16 00:05:13;;;;;;;61.90;32.75;;;;;;;5.87;100.00;100177.16;5098318;28;20081;-76
2022/02/16 00:07:42;;;;;;;62.08;33.90;;;;;;;5.81;100.00;100168.63;5116317;28;20040;-74
2022/02/16 00:10:12;;;;;;;62.05;33.15;;;;;;;5.75;100.00;100170.59;5098220;28;20100;-75
2022/02/16 00:12:42;;;;;;;64.25;34.40;;;;;;;5.71;100.00;100169.00;5097981;28;20104;-75
2022/02/16 00:15:13;;;;;;;60.72;32.20;;;;;;;5.60;100.00;100171.25;5098145;28;20477;-75
2022/02/16 00:17:42;;;;;;;66.28;35.15;;;;;;;5.56;100.00;100164.34;5116125;28;20043;-77
2022/02/16 00:20:12;;;;;;;67.50;35.33;;;;;;;5.40;100.00;100172.06;5098086;28;20396;-77
2022/02/16 00:22:41;;;;;;;64.57;34.63;;;;;;;5.40;100.00;100148.25;5097432;28;20056;-77
2022/02/16 00:25:10;;;;;;;68.50;34.63;;;;;;;5.41;100.00;100162.34;5115871;28;20044;-77
2022/02/16 00:27:38;;;;;;;68.60;34.58;;;;;;;5.36;100.00;100154.56;5115753;28;20093;-78
2022/02/16 00:30:09;;;;;;;71.65;35.85;;;;;;;5.41;100.00;100159.69;5115387;28;20044;-77
2022/02/16 00:32:37;;;;;;;64.55;33.33;;;;;;;5.47;100.00;100154.13;5097843;28;20163;-78
2022/02/16 00:35:07;;;;;;;69.75;34.97;;;;;;;5.47;100.00;100151.47;5115903;28;20135;-77
2022/02/16 00:37:35;;;;;;;69.93;35.92;;;;;;;5.34;100.00;100155.56;5097436;28;20369;-78
2022/02/16 00:40:04;;;;;;;72.13;34.25;;;;;;;5.33;100.00;100153.84;5097875;28;20051;-77
2022/02/16 00:42:33;;;;;;;69.45;35.08;;;;;;;5.35;100.00;100152.84;5115427;28;20043;-78
2022/02/16 00:45:01;;;;;;;67.30;34.80;;;;;;;5.25;100.00;100154.13;5115659;28;20122;-77
2022/02/16 00:47:34;;;;;;;72.38;33.78;;;;;;;5.20;100.00;100140.22;5097254;28;20052;-78
2022/02/16 00:50:02;;;;;;;75.32;38.13;;;;;;;5.02;100.00;100130.38;5115518;28;20058;-78
2022/02/16 00:52:31;;;;;;;73.95;35.33;;;;;;;5.13;100.00;100134.34;5097022;28;20096;-78
2022/02/16 00:55:00;;;;;;;66.93;33.80;;;;;;;5.24;100.00;100139.19;5097272;28;20094;-78
2022/02/16 00:57:28;;;;;;;73.78;35.83;;;;;;;5.20;100.00;100134.06;5096929;28;20043;-79
2022/02/16 00:59:56;;;;;;;71.78;36.72;;;;;;;5.24;100.00;100140.97;5115303;28;20129;-77
2022/02/16 01:02:25;;;;;;;72.78;35.45;;;;;;;5.25;100.00;100148.84;5114934;28;20040;-83
2022/02/16 01:04:55;;;;;;;71.80;34.63;;;;;;;5.22;100.00;100132.25;5115752;28;20048;-79
2022/02/16 01:07:24;;;;;;;70.97;35.03;;;;;;;5.13;100.00;100129.06;5097483;28;20069;-77
2022/02/16 01:09:52;;;;;;;73.72;36.88;;;;;;;5.10;100.00;100134.44;5115056;28;20043;-78
2022/02/16 01:12:20;;;;;;;75.70;36.35;;;;;;;5.17;100.00;100125.34;5115135;28;20067;-78
2022/02/16 01:14:51;;;;;;;73.97;37.00;;;;;;;5.08;100.00;100104.56;5097193;28;20047;-78
2022/02/16 01:17:19;;;;;;;71.93;35.67;;;;;;;5.17;100.00;100098.06;5114722;28;20051;-79
2022/02/16 01:19:47;;;;;;;75.43;36.88;;;;;;;5.17;100.00;100096.25;5114923;28;20130;-78
2022/02/16 01:22:17;;;;;;;73.05;34.67;;;;;;;5.18;100.00;100102.41;5096853;28;20427;-78
2022/02/16 01:24:46;;;;;;;78.15;37.75;;;;;;;5.02;100.00;100111.88;5096516;28;20043;-79
2022/02/16 01:27:14;;;;;;;71.18;36.92;;;;;;;5.09;100.00;100116.84;5097012;28;20509;-79
2022/02/16 01:29:42;;;;;;;73.20;36.65;;;;;;;5.03;100.00;100117.13;5114344;28;20044;-78
2022/02/16 01:32:11;;;;;;;76.13;37.78;;;;;;;5.10;100.00;100123.88;5114401;28;20519;-78
2022/02/16 01:34:43;;;;;;;77.70;39.20;;;;;;;5.15;100.00;100121.91;5096307;28;20051;-79
2022/02/16 01:37:11;;;;;;;71.45;35.78;;;;;;;5.16;100.00;100112.19;5114792;28;20046;-78
2022/02/16 01:39:41;;;;;;;71.38;38.00;;;;;;;5.16;100.00;100109.56;5095991;28;20138;-78
2022/02/16 01:42:16;;;;;;;70.72;36.58;;;;;;;5.27;100.00;100098.53;5113858;28;20050;-78
2022/02/16 01:44:45;;;;;;;73.97;37.95;;;;;;;5.00;100.00;100089.94;5096031;28;20404;-78
2022/02/16 01:47:13;;;;;;;67.22;33.83;;;;;;;5.04;100.00;100081.81;5114712;28;20048;-78
2022/02/16 01:49:43;;;;;;;78.72;36.33;;;;;;;4.87;100.00;100087.78;5114053;28;20111;-77
2022/02/16 01:52:12;;;;;;;72.78;35.58;;;;;;;4.95;100.00;100091.91;5114608;28;20044;-76
2022/02/16 01:54:42;;;;;;;73.22;34.97;;;;;;;4.94;100.00;100080.47;5113788;28;20047;-77
2022/02/16 01:57:11;;;;;;;76.70;37.20;;;;;;;4.83;100.00;100074.75;5114371;28;20048;-77
2022/02/16 01:59:39;;;;;;;76.20;37.58;;;;;;;4.85;100.00;100060.56;5113985;28;20043;-76
2022/02/16 02:02:07;;;;;;;69.90;35.05;;;;;;;4.91;100.00;100061.22;5114439;28;20469;-75
2022/02/16 02:04:36;;;;;;;79.80;37.10;;;;;;;4.84;100.00;100058.84;5096463;28;20467;-76
2022/02/16 02:07:04;;;;;;;72.75;35.78;;;;;;;4.79;100.00;100039.66;5095993;28;20047;-75
2022/02/16 02:09:33;;;;;;;69.32;35.47;;;;;;;4.63;100.00;100037.66;5113623;28;20081;-76
2022/02/16 02:12:02;;;;;;;75.43;37.40;;;;;;;4.72;100.00;100032.00;5114370;28;20050;-76
2022/02/16 02:14:32;;;;;;;77.72;37.22;;;;;;;4.74;100.00;100035.47;5113834;28;20516;-76
2022/02/16 02:17:00;;;;;;;73.97;36.00;;;;;;;4.81;100.00;100032.50;5095386;28;20047;-74
2022/02/16 02:19:29;;;;;;;73.63;37.15;;;;;;;4.87;100.00;100047.28;5113713;28;20043;-74
2022/02/16 02:22:00;;;;;;;76.13;36.88;;;;;;;4.82;100.00;100046.59;5095908;28;20481;-73
2022/02/16 02:24:28;;;;;;;76.15;37.05;;;;;;;4.81;100.00;100047.50;5113946;28;20064;-74
2022/02/16 02:26:57;;;;;;;73.38;35.35;;;;;;;4.81;100.00;100045.72;5113594;28;20404;-75
2022/02/16 02:29:25;;;;;;;70.47;34.28;;;;;;;4.85;100.00;100043.84;5114202;28;20058;-75
2022/02/16 02:31:54;;;;;;;71.80;35.47;;;;;;;4.84;100.00;100050.06;5095223;28;20385;-75
2022/02/16 02:34:22;;;;;;;71.88;34.63;;;;;;;4.89;100.00;100046.28;5113442;28;20051;-75
2022/02/16 02:36:50;;;;;;;72.85;35.10;;;;;;;4.92;100.00;100053.22;5113131;28;20058;-76
2022/02/16 02:39:20;;;;;;;68.20;35.45;;;;;;;4.94;100.00;100054.03;5095466;28;20078;-75
2022/02/16 02:41:48;;;;;;;67.30;33.88;;;;;;;4.91;100.00;100048.84;5113100;28;20385;-74
2022/02/16 02:44:17;;;;;;;71.38;35.75;;;;;;;4.95;100.00;100057.53;5113574;28;20040;-75
2022/02/16 02:46:45;;;;;;;67.88;33.17;;;;;;;5.08;100.00;100056.13;5113442;28;20492;-76
2022/02/16 02:49:13;;;;;;;70.03;36.17;;;;;;;5.02;100.00;100051.97;5095537;28;20378;-77
2022/02/16 02:51:41;;;;;;;68.88;35.53;;;;;;;5.02;100.00;100059.00;5113494;28;20060;-77
2022/02/16 02:54:10;;;;;;;68.45;34.03;;;;;;;5.02;100.00;100062.53;5117112;28;20043;-77
2022/02/16 02:56:39;;;;;;;67.00;35.53;;;;;;;5.06;100.00;100058.81;5101637;28;20097;-77
2022/02/16 02:59:07;;;;;;;70.15;35.88;;;;;;;5.03;100.00;100080.09;5102328;28;20051;-77
2022/02/16 03:01:36;;;;;;;71.38;36.28;;;;;;;4.99;100.00;100081.13;5120104;28;20035;-78
2022/02/16 03:04:05;;;;;;;66.72;34.50;;;;;;;5.01;100.00;100087.22;5101979;28;20050;-78
2022/02/16 03:06:33;;;;;;;64.72;34.92;;;;;;;5.03;100.00;100085.41;5120301;28;20063;-82
2022/02/16 03:09:01;;;;;;;65.38;34.55;;;;;;;5.03;100.00;100074.81;5120288;28;20047;-76
2022/02/16 03:11:30;;;;;;;65.15;34.00;;;;;;;5.03;100.00;100074.81;5119975;28;20036;-76
2022/02/16 03:14:02;;;;;;;67.97;33.72;;;;;;;5.12;100.00;100068.31;5119998;28;20040;-77
2022/02/16 03:16:30;;;;;;;64.45;33.40;;;;;;;5.24;100.00;100056.34;5120116;28;20039;-76
2022/02/16 03:18:59;;;;;;;65.15;32.67;;;;;;;5.29;100.00;100054.38;5119681;28;20070;-76
2022/02/16 03:21:27;;;;;;;61.60;32.90;;;;;;;5.21;100.00;100056.47;5120070;28;20048;-75
2022/02/16 03:23:55;;;;;;;68.32;35.03;;;;;;;5.13;100.00;100057.66;5119431;28;20066;-76
2022/02/16 03:26:24;;;;;;;63.47;33.75;;;;;;;5.07;100.00;100055.25;5120081;28;20050;-76
2022/02/16 03:28:52;;;;;;;67.40;34.38;;;;;;;5.01;100.00;100068.72;5119510;28;20424;-76
2022/02/16 03:31:22;;;;;;;63.30;33.40;;;;;;;5.03;100.00;100074.81;5119698;28;20481;-76
2022/02/16 03:33:50;;;;;;;64.78;33.63;;;;;;;5.32;100.00;100064.84;5119536;28;20042;-75
2022/02/16 03:36:19;;;;;;;62.53;32.03;;;;;;;5.26;100.00;100059.78;5119579;28;20051;-75
2022/02/16 03:38:47;;;;;;;63.08;32.83;;;;;;;5.29;100.00;100054.38;5119621;28;20044;-75
2022/02/16 03:41:15;;;;;;;63.30;33.08;;;;;;;5.41;100.00;100059.16;5101828;28;20053;-75
2022/02/16 03:43:46;;;;;;;66.15;33.33;;;;;;;5.29;100.00;100062.31;5119353;28;20067;-76
2022/02/16 03:46:14;;;;;;;63.25;32.35;;;;;;;5.28;100.00;100063.22;5101567;28;20131;-77
2022/02/16 03:48:44;;;;;;;63.28;32.65;;;;;;;5.27;100.00;100067.66;5119261;28;20051;-78
2022/02/16 03:51:13;;;;;;;63.10;33.10;;;;;;;5.10;100.00;100064.84;5120086;28;20052;-77
2022/02/16 03:53:41;;;;;;;64.32;33.10;;;;;;;5.07;100.00;100071.13;5119457;28;20122;-78
2022/02/16 03:56:10;;;;;;;63.35;33.72;;;;;;;5.02;100.00;100078.41;5119457;28;20047;-78
2022/02/16 03:58:38;;;;;;;64.30;34.08;;;;;;;4.99;100.00;100075.84;5119797;28;20040;-78
2022/02/16 04:01:06;;;;;;;61.38;31.77;;;;;;;5.11;100.00;100075.34;5119738;28;20393;-78
2022/02/16 04:03:35;;;;;;;68.20;34.15;;;;;;;5.12;100.00;100079.75;5119679;28;20043;-73
2022/02/16 04:06:05;;;;;;;59.53;31.15;;;;;;;5.16;100.00;100078.69;5116566;28;20067;-76
2022/02/16 04:08:33;;;;;;;61.33;32.47;;;;;;;5.06;100.00;100081.75;5116529;28;20074;-77
2022/02/16 04:11:02;;;;;;;58.88;31.85;;;;;;;5.11;100.00;100082.41;5098085;28;20069;-78
2022/02/16 04:13:30;;;;;;;64.75;32.20;;;;;;;5.07;100.00;100079.06;5098282;28;20051;-77
2022/02/16 04:15:58;;;;;;;63.80;33.67;;;;;;;5.24;100.00;100077.50;5115893;28;20524;-78
2022/02/16 04:18:26;;;;;;;60.60;31.17;;;;;;;5.27;100.00;100077.38;5116730;28;20400;-78
2022/02/16 04:20:55;;;;;;;64.63;33.13;;;;;;;5.27;100.00;100080.88;5097826;28;20047;-78
2022/02/16 04:23:25;;;;;;;61.92;32.20;;;;;;;5.17;100.00;100085.69;5116315;28;20101;-77
2022/02/16 04:25:53;;;;;;;64.32;32.88;;;;;;;5.17;100.00;100087.47;5115819;28;20046;-78
2022/02/16 04:28:23;;;;;;;68.07;33.08;;;;;;;5.12;100.00;100090.31;5116062;28;20039;-78
2022/02/16 04:30:52;;;;;;;68.07;35.55;;;;;;;5.11;100.00;100088.56;5115757;28;20036;-78
2022/02/16 04:33:20;;;;;;;60.25;32.03;;;;;;;5.08;100.00;100093.13;5115982;28;20078;-77
2022/02/16 04:35:48;;;;;;;66.53;34.08;;;;;;;5.07;100.00;100081.69;5115647;28;20040;-79
2022/02/16 04:38:17;;;;;;;67.38;33.05;;;;;;;5.16;100.00;100089.25;5116023;28;20536;-78
2022/02/16 04:40:47;;;;;;;60.17;32.40;;;;;;;5.25;100.00;100081.88;5115562;28;20040;-78
2022/02/16 04:43:15;;;;;;;60.65;31.95;;;;;;;5.24;100.00;100080.16;5115712;28;20075;-78
2022/02/16 04:45:43;;;;;;;64.10;33.05;;;;;;;5.37;100.00;100084.88;5097066;28;20395;-77
2022/02/16 04:48:14;;;;;;;61.13;31.33;;;;;;;5.31;100.00;100086.94;5115673;28;20043;-77
2022/02/16 04:50:42;;;;;;;64.15;30.35;;;;;;;5.38;100.00;100088.38;5115339;28;20130;-78
2022/02/16 04:53:11;;;;;;;56.05;31.20;;;;;;;5.28;100.00;100090.53;5115239;28;20488;-78
2022/02/16 04:55:40;;;;;;;60.10;31.77;;;;;;;5.15;100.00;100095.47;5115405;28;20096;-77
2022/02/16 04:58:09;;;;;;;60.38;30.55;;;;;;;5.30;100.00;100093.13;5097326;28;20052;-76
2022/02/16 05:00:37;;;;;;;57.28;29.15;;;;;;;5.33;100.00;100090.38;5097144;28;20046;-77
2022/02/16 05:03:06;;;;;;;58.28;31.63;;;;;;;5.20;100.00;100097.06;5096862;28;20048;-77
2022/02/16 05:05:34;;;;;;;59.42;30.58;;;;;;;5.12;100.00;100107.97;5097028;28;20447;-77
2022/02/16 05:08:02;;;;;;;61.92;30.05;;;;;;;5.21;100.00;100102.31;5114983;28;20051;-77
2022/02/16 05:10:30;;;;;;;59.70;30.52;;;;;;;5.23;100.00;100104.88;5115188;28;20070;-78
2022/02/16 05:12:59;;;;;;;57.65;29.40;;;;;;;5.16;100.00;100102.47;5114974;28;20039;-78
2022/02/16 05:15:28;;;;;;;57.88;29.55;;;;;;;4.97;100.00;100101.50;5096735;28;20075;-78
2022/02/16 05:17:57;;;;;;;63.75;31.15;;;;;;;4.97;100.00;100104.13;5095576;28;20048;-78
2022/02/16 05:20:25;;;;;;;61.42;30.95;;;;;;;5.01;100.00;100097.78;5097063;28;20048;-78
2022/02/16 05:22:55;;;;;;;63.72;31.85;;;;;;;4.93;100.00;100099.91;5114701;28;20088;-79
2022/02/16 05:25:23;;;;;;;59.40;32.10;;;;;;;5.03;100.00;100100.41;5114857;28;20039;-79
2022/02/16 05:27:51;;;;;;;62.65;32.33;;;;;;;4.98;100.00;100083.84;5114638;28;20071;-78
2022/02/16 05:30:20;;;;;;;63.22;31.77;;;;;;;5.07;100.00;100078.19;5096977;28;20054;-77
2022/02/16 05:32:49;;;;;;;62.30;30.75;;;;;;;4.94;100.00;100074.34;5096483;28;20093;-77
2022/02/16 05:35:18;;;;;;;67.50;33.03;;;;;;;5.02;100.00;100088.06;5114501;28;20092;-77
2022/02/16 05:37:47;;;;;;;63.95;31.85;;;;;;;4.95;100.00;100092.78;5096273;28;20082;-78
2022/02/16 05:40:15;;;;;;;60.03;31.35;;;;;;;5.00;100.00;100090.78;5114566;28;20050;-78
2022/02/16 05:42:43;;;;;;;65.13;32.72;;;;;;;5.01;100.00;100092.50;5114813;28;20043;-77
2022/02/16 05:45:12;;;;;;;63.13;31.55;;;;;;;5.06;100.00;100090.56;5114383;28;20040;-75
2022/02/16 05:47:40;;;;;;;64.50;33.00;;;;;;;4.93;100.00;100089.34;5114525;28;20108;-78
2022/02/16 05:50:11;;;;;;;69.22;34.17;;;;;;;4.83;100.00;100094.13;5114176;28;20058;-78
2022/02/16 05:52:39;;;;;;;57.92;30.05;;;;;;;5.08;100.00;100091.34;5114496;28;20138;-73
2022/02/16 05:55:09;;;;;;;58.55;30.38;;;;;;;5.12;100.00;100085.03;5113976;28;20126;-73
2022/02/16 05:57:37;;;;;;;59.17;30.55;;;;;;;4.85;100.00;100086.13;5114316;28;20540;-73
2022/02/16 06:00:07;;;;;;;58.47;30.83;;;;;;;4.95;100.00;100086.63;5114033;28;20075;-73
2022/02/16 06:02:36;;;;;;;63.38;32.10;;;;;;;4.85;100.00;100088.75;5114244;28;20073;-77
2022/02/16 06:05:05;;;;;;;60.80;32.67;;;;;;;4.84;100.00;100089.69;5095775;28;20134;-77
2022/02/16 06:07:35;;;;;;;64.57;32.90;;;;;;;4.94;100.00;100095.47;5095913;28;20442;-75
2022/02/16 06:10:05;;;;;;;65.30;32.72;;;;;;;4.96;100.00;100093.63;5113529;28;20097;-77
2022/02/16 06:12:36;;;;;;;63.67;32.75;;;;;;;4.94;100.00;100096.34;5113875;28;20491;-79
2022/02/16 06:15:06;;;;;;;61.95;31.85;;;;;;;5.04;100.00;100102.13;5113539;28;20040;-78
2022/02/16 06:17:34;;;;;;;61.55;31.40;;;;;;;5.09;100.00;100098.34;5095858;28;20047;-74
2022/02/16 06:20:04;;;;;;;65.55;32.05;;;;;;;5.19;100.00;100109.41;5113595;28;20039;-75
2022/02/16 06:22:35;;;;;;;63.22;32.75;;;;;;;5.21;100.00;100106.72;5113897;28;20194;-75
2022/02/16 06:25:05;;;;;;;66.47;34.15;;;;;;;5.06;100.00;100111.69;5113717;28;20377;-75
2022/02/16 06:27:34;;;;;;;66.10;33.65;;;;;;;5.02;100.00;100102.19;5113636;28;20078;-75
2022/02/16 06:30:03;;;;;;;70.25;34.63;;;;;;;5.04;100.00;100108.25;5113539;28;20039;-76
2022/02/16 06:32:34;;;;;;;61.67;33.33;;;;;;;5.04;100.00;100118.84;5095534;28;20105;-75
2022/02/16 06:35:02;;;;;;;68.60;33.45;;;;;;;5.16;100.00;100117.47;5095587;28;20048;-76
2022/02/16 06:37:31;;;;;;;65.75;33.47;;;;;;;5.26;100.00;100125.91;5095518;28;20048;-74
2022/02/16 06:40:01;;;;;;;65.25;34.28;;;;;;;5.24;100.00;100125.97;5113440;28;20036;-74
2022/02/16 06:42:30;;;;;;;71.18;35.58;;;;;;;5.16;100.00;100123.63;5113505;28;20043;-75
2022/02/16 06:44:59;;;;;;;71.15;36.38;;;;;;;5.13;100.00;100118.47;5095366;28;20051;-74
2022/02/16 06:47:28;;;;;;;68.13;34.80;;;;;;;5.23;100.00;100124.25;5095433;28;20039;-74
2022/02/16 06:49:57;;;;;;;70.72;36.53;;;;;;;5.17;100.00;100120.06;5095072;28;20056;-74
2022/02/16 06:52:26;;;;;;;77.80;37.38;;;;;;;5.22;100.00;100129.63;5095521;28;20043;-74
2022/02/16 06:54:55;;;;;;;73.80;35.90;;;;;;;5.27;100.00;100124.97;5095491;28;20059;-74
2022/02/16 06:57:25;;;;;;;70.32;35.83;;;;;;;5.28;100.00;100118.75;5113315;28;20100;-76
2022/02/16 06:59:53;;;;;;;64.80;34.33;;;;;;;5.38;100.00;100107.75;5095254;28;20044;-76
2022/02/16 07:02:22;;;;;;;70.97;34.95;;;;;;;5.45;100.00;100113.66;5095286;28;20051;-75
2022/02/16 07:04:50;;;;;;;69.70;36.35;;;;;;;5.39;100.00;100108.59;5095413;28;20048;-75
2022/02/16 07:07:19;;;;;;;67.95;34.97;;;;;;;5.47;100.00;100122.38;5095270;28;20056;-76
2022/02/16 07:09:47;;;;;;;70.72;36.33;;;;;;;5.43;100.00;100120.81;5094813;28;20047;-74
2022/02/16 07:12:16;;;;;;;68.82;35.45;;;;;;;5.44;100.00;100122.53;5113127;28;20071;-74
2022/02/16 07:14:51;;;;;;;68.53;35.05;;;;;;;5.39;100.00;100121.81;5113483;28;20141;-78
2022/02/16 07:17:21;;;;;;;69.45;34.75;;;;;;;5.39;100.00;100120.03;5112941;28;20074;-77
2022/02/16 07:19:50;;;;;;;74.47;36.97;;;;;;;5.45;100.00;100121.59;5094747;28;20112;-75
2022/02/16 07:22:18;;;;;;;72.88;36.67;;;;;;;5.46;100.00;100118.88;5112649;28;20126;-74
2022/02/16 07:24:47;;;;;;;70.03;36.28;;;;;;;5.49;100.00;100109.94;5113211;28;20044;-76
2022/02/16 07:27:15;;;;;;;69.93;36.15;;;;;;;5.47;100.00;100107.38;5112506;28;20051;-75
2022/02/16 07:29:44;;;;;;;70.10;35.72;;;;;;;5.48;100.00;100108.22;5112892;28;20040;-75
2022/02/16 07:32:14;;;;;;;75.57;37.90;;;;;;;5.45;100.00;100113.66;5113217;28;20097;-76
2022/02/16 07:34:42;;;;;;;76.68;38.35;;;;;;;5.50;100.00;100122.28;5094573;28;20048;-75
2022/02/16 07:37:10;;;;;;;72.90;36.65;;;;;;;5.52;100.00;100130.16;5093987;28;20217;-81
2022/02/16 07:39:38;;;;;;;73.75;38.35;;;;;;;5.60;100.00;100117.47;5094780;28;20050;-87
2022/02/16 07:42:07;;;;;;;74.55;39.30;;;;;;;5.81;100.00;100120.97;5097869;28;20059;-75
2022/02/16 07:44:35;;;;;;;77.57;37.90;;;;;;;6.02;100.00;100118.28;5116686;28;20093;-75
2022/02/16 07:47:08;;;;;;;79.57;40.20;;;;;;;6.08;100.00;100108.34;5116929;28;20044;-75
2022/02/16 07:49:38;;;;;;;;;;;;;;;6.02;100.00;100112.13;5117240;28;20373;-80
2022/02/16 07:52:07;;;;;;;69.47;34.67;;;;;;;5.98;100.00;100110.53;5098295;28;20014;-80
2022/02/16 07:54:35;;;;;;;72.55;37.13;;;;;;;6.02;100.00;100120.09;5116808;28;20439;-80
2022/02/16 07:57:04;;;;;;;70.20;36.70;;;;;;;5.93;100.00;100120.47;5098243;28;20082;-78
2022/02/16 07:59:34;;;;;;;74.00;37.85;;;;;;;5.92;100.00;100122.28;5098500;28;20054;-77
2022/02/16 08:02:03;;;;;;;73.13;37.28;;;;;;;6.00;100.00;100119.28;5116495;28;20051;-82
2022/02/16 08:04:34;;;;;;;73.25;36.88;;;;;;;5.99;100.00;100120.22;5098488;28;20051;-77
2022/02/16 08:07:05;;;;;;;66.90;34.40;;;;;;;5.92;100.00;100119.63;5116382;28;20078;-77
2022/02/16 08:09:36;;;;;;;71.75;36.90;;;;;;;6.00;100.00;100119.28;5116285;28;20118;-77
2022/02/16 08:12:05;;;;;;;66.60;36.15;;;;;;;6.03;100.00;100116.50;5116212;28;20046;-78
2022/02/16 08:14:35;;;;;;;72.60;36.38;;;;;;;6.05;100.00;100122.59;5116341;28;20040;-77
2022/02/16 08:17:03;;;;;;;75.28;38.45;;;;;;;6.10;100.00;100128.56;5115661;28;20043;-77
2022/02/16 08:19:32;;;;;;;76.70;38.30;;;;;;;6.18;100.00;100125.59;5097996;28;20055;-77
2022/02/16 08:22:00;;;;;;;70.13;36.00;;;;;;;6.24;100.00;100122.66;5097500;28;20040;-78
2022/02/16 08:24:30;;;;;;;72.70;36.78;;;;;;;6.46;100.00;100125.19;5097939;28;20139;-77
2022/02/16 08:27:00;;;;;;;70.13;36.63;;;;;;;6.45;100.00;100123.47;5097952;28;20047;-77
2022/02/16 08:29:28;;;;;;;69.68;36.00;;;;;;;6.62;100.00;100125.34;5097831;28;20047;-77
2022/02/16 08:31:57;;;;;;;74.88;37.05;;;;;;;6.58;100.00;100125.50;5097934;28;20048;-77
2022/02/16 08:34:28;;;;;;;68.95;36.20;;;;;;;6.53;100.00;100138.09;5115803;28;20468;-77
2022/02/16 08:36:57;;;;;;;70.10;36.92;;;;;;;6.56;100.00;100129.13;5116174;28;20039;-77
2022/02/16 08:39:27;;;;;;;74.82;35.88;;;;;;;6.49;100.00;100130.38;5116072;28;20043;-77
2022/02/16 08:41:57;;;;;;;69.47;36.40;;;;;;;6.47;100.00;100126.94;5097839;28;20388;-77
2022/02/16 08:44:26;;;;;;;67.65;33.92;;;;;;;6.38;100.00;100122.03;5115414;28;20039;-77
2022/02/16 08:46:54;;;;;;;63.63;32.72;;;;;;;6.43;100.00;100109.44;5097471;28;20085;-77
2022/02/16 08:49:23;;;;;;;71.05;35.35;;;;;;;6.49;100.00;100115.31;5115524;28;20043;-77
2022/02/16 08:51:51;;;;;;;67.25;33.72;;;;;;;6.70;100.00;100108.16;5115616;28;20042;-77
2022/02/16 08:54:20;;;;;;;50.60;27.13;;;;;;;7.09;100.00;100112.53;5115592;28;20039;-77
2022/02/16 08:56:50;;;;;;;61.47;29.95;;;;;;;7.37;100.00;100104.94;5097391;28;20048;-77
2022/02/16 08:59:20;;;;;;;53.97;28.00;;;;;;;7.54;100.00;100111.22;5096885;28;20126;-77
2022/02/16 09:01:48;;;;;;;63.85;30.23;;;;;;;7.68;100.00;100111.38;5097540;28;20130;-77
2022/02/16 09:04:17;;;;;;;53.10;28.05;;;;;;;7.72;100.00;100104.97;5115340;28;20063;-77
2022/02/16 09:07:27;;;;;;;59.60;29.42;;;;;;;7.59;100.00;100106.53;5097244;28;20138;-77
2022/02/16 09:09:45;;;;;;;58.42;29.65;;;;;;;7.52;100.00;100103.31;5115143;28;20038;-78
2022/02/16 09:12:13;;;;;;;64.57;31.08;;;;;;;7.46;100.00;100093.88;5115163;28;20039;-78
2022/02/16 09:14:45;;;;;;;58.63;29.67;;;;;;;7.50;100.00;100097.22;5115264;28;20055;-78
2022/02/16 09:17:13;;;;;;;44.78;23.65;;;;;;;7.45;100.00;100097.47;5114827;28;20062;-78
2022/02/16 09:19:42;;;;;;;52.45;27.58;;;;;;;7.38;100.00;100103.16;5114835;28;20142;-76
2022/02/16 09:22:12;;;;;;;50.78;25.80;;;;;;;7.45;100.00;100097.47;5115131;28;20039;-77
2022/02/16 09:24:40;;;;;;;37.35;19.63;;;;;;;7.43;100.00;100093.16;5114815;28;20031;-77
2022/02/16 09:27:08;;;;;;;23.20;12.52;;;;;;;7.54;100.00;100096.16;5115016;28;20410;-78
2022/02/16 09:29:36;;;;;;;19.83;10.68;;;;;;;7.33;100.00;100103.34;5096962;28;20043;-77
2022/02/16 09:32:09;;;;;;;12.18;7.30;;;;;;;7.31;100.00;100105.22;5114648;28;20046;-77
2022/02/16 09:34:38;;;;;;;14.30;7.85;;;;;;;7.26;100.00;100109.91;5097194;28;20434;-78
2022/02/16 09:37:08;;;;;;;14.88;8.45;;;;;;;7.12;100.00;100117.66;5114430;28;20036;-78
2022/02/16 09:39:36;;;;;;;15.38;8.80;;;;;;;6.97;100.00;100107.81;5096757;28;20044;-77
2022/02/16 09:42:05;;;;;;;15.60;8.60;;;;;;;7.12;100.00;100118.53;5114499;28;20040;-77
2022/02/16 09:44:38;;;;;;;16.38;8.48;;;;;;;7.09;100.00;100104.56;5114864;28;20043;-78
2022/02/16 09:47:09;;;;;;;13.60;8.67;;;;;;;7.13;100.00;100119.38;5114747;28;20080;-79
2022/02/16 09:49:39;;;;;;;17.65;8.55;;;;;;;7.21;100.00;100119.88;5096054;28;20078;-76
2022/02/16 09:52:27;;;;;;;15.52;8.63;;;;;;;7.27;100.00;100114.28;5114495;28;20047;-77
2022/02/16 09:54:59;;;;;;;13.63;8.43;;;;;;;7.43;100.00;100120.56;5114461;28;20058;-78
2022/02/16 09:57:28;;;;;;;18.10;10.05;;;;;;;7.39;100.00;100112.81;5113943;28;20468;-78
2022/02/16 09:59:59;;;;;;;16.48;9.20;;;;;;;7.60;100.00;100110.88;5114546;28;20059;-78
2022/02/16 10:02:37;;;;;;;16.63;9.07;;;;;;;7.81;100.00;100104.50;5096015;28;20110;-77
2022/02/16 10:05:07;;;;;;;16.20;8.43;;;;;;;7.81;100.00;100107.16;5095871;28;20047;-77
2022/02/16 10:07:43;;;;;;;21.58;9.30;;;;;;;7.82;100.00;100108.03;5114045;28;20039;-77
2022/02/16 10:10:18;;;;;;;16.73;9.15;;;;;;;7.69;100.00;100102.47;5114197;28;20036;-78
2022/02/16 10:12:48;;;;;;;17.70;9.05;;;;;;;7.68;100.00;100098.94;5096240;28;20040;-78
2022/02/16 10:15:18;;;;;;;15.30;8.95;;;;;;;7.74;100.00;100090.69;5114016;28;20043;-77
2022/02/16 10:17:49;;;;;;;18.65;9.00;;;;;;;7.70;100.00;100089.09;5096137;28;20047;-77
2022/02/16 10:20:22;;;;;;;17.05;8.48;;;;;;;7.50;100.00;100089.25;5113628;28;20044;-77
2022/02/16 10:22:56;;;;;;;12.50;7.45;;;;;;;7.55;100.00;100089.91;5113982;28;20040;-77
2022/02/16 10:25:27;;;;;;;12.80;7.30;;;;;;;7.53;100.00;100090.91;5113958;28;20384;-77
2022/02/16 10:28:11;;;;;;;14.73;7.88;;;;;;;7.62;100.00;100077.16;5114023;28;20539;-77
2022/02/16 10:30:54;;;;;;;14.20;7.60;;;;;;;7.62;100.00;100078.00;5096288;28;20047;-76
2022/02/16 10:33:28;;;;;;;13.90;8.07;;;;;;;7.70;100.00;100074.97;5095661;28;20126;-76
2022/02/16 10:35:58;;;;;;;;;;;;;;;7.76;100.00;100064.06;5096429;28;20047;-77
2022/02/16 10:38:28;;;;;;;14.63;8.52;;;;;;;7.78;100.00;100061.31;5095411;28;20368;-78
2022/02/16 10:41:06;;;;;;;13.70;8.82;;;;;;;7.79;100.00;100061.22;5095572;28;20465;-78
2022/02/16 10:43:36;;;;;;;16.00;9.00;;;;;;;7.75;100.00;100054.38;5095443;28;20044;-77
2022/02/16 10:46:18;;;;;;;14.88;9.25;;;;;;;8.00;100.00;100040.66;5113841;28;20138;-77
2022/02/16 10:48:48;;;;;;;15.18;8.32;;;;;;;7.95;100.00;100038.25;5113784;28;20088;-77
2022/02/16 10:51:24;;;;;;;14.38;8.30;;;;;;;8.00;100.00;100033.53;5113922;28;20051;-77
2022/02/16 10:53:53;;;;;;;14.65;8.23;;;;;;;7.97;100.00;100036.38;5113569;28;20086;-77
2022/02/16 10:56:21;;;;;;;12.30;7.47;;;;;;;7.92;100.00;100027.81;5095158;28;20043;-77
2022/02/16 10:58:50;;;;;;;11.38;7.25;;;;;;;7.92;100.00;100022.50;5113381;28;20307;-77
2022/02/16 11:01:18;;;;;;;12.10;7.40;;;;;;;8.02;100.00;100015.75;5113479;28;20036;-78
2022/02/16 11:03:53;;;;;;;10.38;6.55;;;;;;;8.11;100.00;100008.22;5095274;28;20388;-78
2022/02/16 11:06:21;;;;;;;12.25;6.40;;;;;;;7.94;100.00;99994.06;5095376;28;20380;-78
2022/02/16 11:08:53;;;;;;;11.73;6.45;;;;;;;8.00;100.00;99993.69;5113481;28;20039;-78
2022/02/16 11:11:27;;;;;;;11.38;6.40;;;;;;;8.09;100.00;99987.03;5095117;28;20392;-78
2022/02/16 11:14:04;;;;;;;11.48;6.90;;;;;;;8.12;100.00;99986.91;5095549;28;20044;-77
2022/02/16 11:16:36;;;;;;;10.90;7.25;;;;;;;8.07;100.00;99980.97;5117118;28;20127;-77
2022/02/16 11:19:22;;;;;;;10.93;6.75;;;;;;;7.98;100.00;99973.47;5099288;28;20039;-77
2022/02/16 11:21:59;;;;;;;11.57;6.85;;;;;;;7.93;100.00;99964.94;5099594;28;20381;-77